Weather at Casarsa della Delizia Air Base

Public forecast

Using degrees Celsius for public forecast. Weather courtesy of forecast.io.

Closest aviation weather report (METAR) to Casarsa della Delizia Air Base

Closest report is Udine-Rivolto Air Base, 9.8 nm (18.2 km) E.

2024/07/22 19:55 (retrieved 49 minutes ago)

LIPI 221955Z 34006KT 9999 FEW070 22/19 Q1014

Closest aviation forecast (TAF) to Casarsa della Delizia Air Base

Closest forecast is Trieste–Friuli Venezia Giulia Airport, 28.4 nm (52.6 km) ESE.

2024/07/22 18:20 (retrieved 2 hours ago)

TAF LIPQ 221700Z 2218/2318 VRB06KT 9999 SCT030 TEMPO 2218/2223 4000 TSRA